createdAt,value
2017-12-23T00:01:36.006Z,0.60
2017-12-23T00:04:03.888Z,0.50
2017-12-23T00:06:32.094Z,0.60
2017-12-23T00:09:00.005Z,0.80
2017-12-23T00:11:27.764Z,0.70
2017-12-23T00:13:55.581Z,0.50
2017-12-23T00:16:23.401Z,0.50
2017-12-23T00:18:52.139Z,0.40
2017-12-23T00:21:19.979Z,0.40
2017-12-23T00:23:49.736Z,0.40
2017-12-23T00:26:17.542Z,0.40
2017-12-23T00:28:45.602Z,0.50
2017-12-23T00:31:13.650Z,0.50
2017-12-23T00:33:41.426Z,0.60
2017-12-23T00:36:09.304Z,0.70
2017-12-23T00:38:37.164Z,0.50
2017-12-23T00:41:05.108Z,0.40
2017-12-23T00:43:32.866Z,0.40
2017-12-23T00:46:01.148Z,0.40
2017-12-23T00:48:31.172Z,0.40
2017-12-23T00:50:59.153Z,0.40
2017-12-23T00:53:27.033Z,0.40
2017-12-23T00:55:56.336Z,0.50
2017-12-23T00:58:24.255Z,0.60
2017-12-23T01:00:52.121Z,0.50
2017-12-23T01:03:19.939Z,0.60
2017-12-23T01:05:47.825Z,0.70
2017-12-23T01:08:15.582Z,0.60
2017-12-23T01:10:43.387Z,0.50
2017-12-23T01:13:11.443Z,0.50
2017-12-23T01:15:39.264Z,0.40
2017-12-23T01:18:07.066Z,0.30
2017-12-23T01:20:34.906Z,0.20
2017-12-23T01:23:03.527Z,0.20
2017-12-23T01:25:31.427Z,0.20
2017-12-23T01:30:31.210Z,0.30
2017-12-23T01:32:59.031Z,0.30
2017-12-23T01:35:26.909Z,0.40
2017-12-23T01:37:54.759Z,0.40
2017-12-23T01:40:22.474Z,0.50
2017-12-23T01:42:50.273Z,0.50
2017-12-23T01:45:18.003Z,0.50
2017-12-23T01:47:46.513Z,0.60
2017-12-23T01:50:14.794Z,0.60
2017-12-23T01:52:43.635Z,0.50
2017-12-23T01:55:11.516Z,0.50
2017-12-23T01:57:39.484Z,0.50
2017-12-23T02:00:07.316Z,0.30
2017-12-23T02:02:35.599Z,0.20
2017-12-23T02:05:04.080Z,0.20
2017-12-23T02:07:31.900Z,0.30
2017-12-23T02:10:00.098Z,0.30
2017-12-23T02:12:28.298Z,0.30
2017-12-23T02:14:56.518Z,0.30
2017-12-23T02:17:26.008Z,0.30
2017-12-23T02:19:53.959Z,0.20
2017-12-23T02:22:21.779Z,0.30
2017-12-23T02:24:49.739Z,0.30
2017-12-23T02:27:18.159Z,0.20
2017-12-23T02:29:46.259Z,0.10
2017-12-23T02:32:14.660Z,0.10
2017-12-23T02:34:42.641Z,0.20
2017-12-23T02:37:10.580Z,0.20
2017-12-23T02:39:38.423Z,0.10
2017-12-23T02:42:06.480Z,0.10
2017-12-23T02:44:34.760Z,0.00
2017-12-23T02:47:02.940Z,0.00
2017-12-23T02:49:30.720Z,0.00
2017-12-23T02:51:58.561Z,0.00
2017-12-23T02:54:26.461Z,0.10
2017-12-23T02:56:55.121Z,0.10
2017-12-23T02:59:22.921Z,0.20
2017-12-23T03:01:50.922Z,0.20
2017-12-23T03:04:18.661Z,0.10
2017-12-23T03:06:46.522Z,0.10
2017-12-23T03:09:14.565Z,0.10
2017-12-23T03:11:42.502Z,0.00
2017-12-23T03:14:10.503Z,0.00
2017-12-23T03:16:38.360Z,0.10
2017-12-23T03:19:07.201Z,0.20
2017-12-23T03:21:35.120Z,0.10
2017-12-23T03:24:03.000Z,0.20
2017-12-23T03:26:31.219Z,0.30
2017-12-23T03:28:59.519Z,0.20
2017-12-23T03:31:27.439Z,0.20
2017-12-23T03:33:55.279Z,0.20
2017-12-23T03:36:23.098Z,0.10
2017-12-23T03:38:50.998Z,0.00
2017-12-23T03:41:18.758Z,0.00
2017-12-23T03:43:46.518Z,0.00
2017-12-23T03:46:14.437Z,-0.10
2017-12-23T03:48:42.177Z,-0.30
2017-12-23T03:51:10.416Z,-0.40
2017-12-23T03:53:38.355Z,-0.80
2017-12-23T03:56:07.095Z,-1.40
2017-12-23T03:58:35.734Z,-1.50
2017-12-23T04:01:03.453Z,-1.50
2017-12-23T04:03:31.373Z,-1.50
2017-12-23T04:05:59.192Z,-1.40
2017-12-23T04:08:27.052Z,-1.40
2017-12-23T04:10:54.911Z,-1.50
2017-12-23T04:13:22.691Z,-1.40
2017-12-23T04:15:50.550Z,-1.50
2017-12-23T04:18:18.389Z,-1.50
2017-12-23T04:20:46.389Z,-1.40
2017-12-23T04:23:14.248Z,-1.30
2017-12-23T04:25:42.148Z,-1.50
2017-12-23T04:28:10.107Z,-1.60
2017-12-23T04:30:37.846Z,-1.70
2017-12-23T04:33:06.846Z,-1.70
2017-12-23T04:35:34.770Z,-1.70
2017-12-23T04:38:02.524Z,-1.40
2017-12-23T04:40:30.344Z,-1.40
2017-12-23T04:42:58.270Z,-1.30
2017-12-23T04:45:26.103Z,-1.40
2017-12-23T04:47:53.902Z,-1.40
2017-12-23T04:50:21.742Z,-1.40
2017-12-23T04:52:50.621Z,-1.20
2017-12-23T04:55:18.400Z,-1.10
2017-12-23T04:57:46.319Z,-1.00
2017-12-23T05:00:14.045Z,-1.20
2017-12-23T05:02:41.838Z,-1.30
2017-12-23T05:05:09.619Z,-1.40
2017-12-23T05:07:37.417Z,-1.70
2017-12-23T05:10:05.240Z,-1.70
2017-12-23T05:12:33.097Z,-1.50
2017-12-23T05:15:01.157Z,-1.70
2017-12-23T05:17:29.016Z,-1.60
2017-12-23T05:19:56.816Z,-1.50
2017-12-23T05:22:24.715Z,-1.50
2017-12-23T05:24:52.535Z,-1.50
2017-12-23T05:27:20.374Z,-1.50
2017-12-23T05:29:48.214Z,-1.40
2017-12-23T05:32:16.174Z,-1.50
2017-12-23T05:34:44.094Z,-1.60
2017-12-23T05:37:11.917Z,-1.80
2017-12-23T05:39:40.192Z,-1.60
2017-12-23T05:42:08.094Z,-1.50
2017-12-23T05:44:36.032Z,-1.40
2017-12-23T05:47:06.040Z,-1.40
2017-12-23T05:49:34.012Z,-1.80
2017-12-23T05:52:02.311Z,-1.80
2017-12-23T05:54:30.891Z,-1.70
2017-12-23T05:56:58.771Z,-1.70
2017-12-23T05:59:26.611Z,-1.30
2017-12-23T06:01:54.531Z,-1.00
2017-12-23T06:04:22.531Z,-0.90
2017-12-23T06:06:50.370Z,-0.80
2017-12-23T06:09:18.130Z,-0.40
2017-12-23T06:11:46.309Z,-0.50
2017-12-23T06:14:14.130Z,-0.60
2017-12-23T06:16:42.110Z,-0.60
2017-12-23T06:19:11.073Z,-0.80
2017-12-23T06:21:39.592Z,-0.80
2017-12-23T06:24:08.752Z,-0.80
2017-12-23T06:26:36.759Z,-0.60
2017-12-23T06:29:04.990Z,-0.50
2017-12-23T06:31:32.729Z,-0.40
2017-12-23T06:34:01.053Z,-0.20
2017-12-23T06:36:30.130Z,0.10
2017-12-23T06:38:57.950Z,0.10
2017-12-23T06:41:25.769Z,0.10
2017-12-23T06:43:53.750Z,0.10
2017-12-23T06:46:22.071Z,0.20
2017-12-23T06:48:49.970Z,0.30
2017-12-23T06:51:17.891Z,0.40
2017-12-23T06:53:45.972Z,0.40
2017-12-23T06:56:13.831Z,0.50
2017-12-23T06:58:41.691Z,0.50
2017-12-23T07:01:09.431Z,0.50
2017-12-23T07:03:37.433Z,0.50
2017-12-23T07:06:05.311Z,0.50
2017-12-23T07:08:33.212Z,0.40
2017-12-23T07:11:01.031Z,0.40
2017-12-23T07:13:28.952Z,0.30
2017-12-23T07:15:56.771Z,0.40
2017-12-23T07:18:24.641Z,0.40
2017-12-23T07:20:52.632Z,0.50
2017-12-23T07:23:20.631Z,0.50
2017-12-23T07:25:48.334Z,0.50
2017-12-23T07:28:16.144Z,0.50
2017-12-23T07:30:43.892Z,0.60
2017-12-23T07:33:11.632Z,0.70
2017-12-23T07:35:39.413Z,0.80
2017-12-23T07:38:07.097Z,1.00
2017-12-23T07:40:34.813Z,1.20
2017-12-23T07:43:02.554Z,1.40
2017-12-23T07:45:30.269Z,1.50
2017-12-23T07:47:58.053Z,1.80
2017-12-23T07:50:25.794Z,1.80
2017-12-23T07:52:53.593Z,2.00
2017-12-23T07:55:21.381Z,2.10
2017-12-23T07:57:49.357Z,2.20
2017-12-23T08:00:16.997Z,2.30
2017-12-23T08:02:44.720Z,2.40
2017-12-23T08:05:12.520Z,2.50
2017-12-23T08:07:40.281Z,2.50
2017-12-23T08:10:08.961Z,2.60
2017-12-23T08:12:37.361Z,2.50
2017-12-23T08:15:05.160Z,2.50
2017-12-23T08:17:32.940Z,2.50
2017-12-23T08:20:01.093Z,2.60
2017-12-23T08:22:29.077Z,2.60
2017-12-23T08:24:56.917Z,2.80
2017-12-23T08:27:25.583Z,3.10
2017-12-23T08:29:53.299Z,3.10
2017-12-23T08:32:21.163Z,3.20
2017-12-23T08:34:49.163Z,3.40
2017-12-23T08:37:17.004Z,3.60
2017-12-23T08:39:45.020Z,3.70
2017-12-23T08:42:12.838Z,4.00
2017-12-23T08:44:40.818Z,4.30
2017-12-23T08:47:08.879Z,4.60
2017-12-23T08:49:36.698Z,4.80
2017-12-23T08:52:04.538Z,5.00
2017-12-23T08:54:32.485Z,5.20
2017-12-23T08:59:32.259Z,5.60
2017-12-23T09:02:00.152Z,5.90
2017-12-23T09:04:29.890Z,6.30
2017-12-23T09:06:57.678Z,6.70
2017-12-23T09:09:25.441Z,7.30
2017-12-23T09:11:53.321Z,7.90
2017-12-23T09:14:21.183Z,8.40
2017-12-23T09:16:49.144Z,8.70
2017-12-23T09:19:17.862Z,9.40
2017-12-23T09:21:45.882Z,9.40
2017-12-23T09:24:14.142Z,9.60
2017-12-23T09:26:42.664Z,10.20
2017-12-23T09:29:10.643Z,10.20
2017-12-23T09:31:38.422Z,10.20
2017-12-23T09:34:06.142Z,10.00
2017-12-23T09:36:33.899Z,9.60
2017-12-23T09:39:01.640Z,9.30
2017-12-23T09:41:29.359Z,9.00
2017-12-23T09:43:57.121Z,8.70
2017-12-23T09:46:24.859Z,8.40
2017-12-23T09:48:52.619Z,8.00
2017-12-23T09:51:20.440Z,7.80
2017-12-23T09:53:48.261Z,7.70
2017-12-23T09:56:16.020Z,7.60
2017-12-23T09:58:43.817Z,7.50
2017-12-23T10:01:11.600Z,7.30
2017-12-23T10:03:39.360Z,7.20
2017-12-23T10:06:07.180Z,7.20
2017-12-23T10:08:34.941Z,7.10
2017-12-23T10:11:02.780Z,7.10
2017-12-23T10:13:30.568Z,7.10
2017-12-23T10:15:58.444Z,7.00
2017-12-23T10:18:26.360Z,7.00
2017-12-23T10:20:54.060Z,7.00
2017-12-23T10:23:21.794Z,7.00
2017-12-23T10:25:52.223Z,7.00
2017-12-23T10:28:20.224Z,6.90
2017-12-23T10:30:48.763Z,7.10
2017-12-23T10:33:16.498Z,7.10
2017-12-23T10:35:45.002Z,7.30
2017-12-23T10:38:12.801Z,7.30
2017-12-23T10:40:40.520Z,7.40
2017-12-23T10:43:08.303Z,7.50
2017-12-23T10:45:36.062Z,7.50
2017-12-23T10:48:03.842Z,7.50
2017-12-23T10:50:31.604Z,7.50
2017-12-23T10:52:59.422Z,7.50
2017-12-23T10:55:27.463Z,7.50
2017-12-23T10:57:55.222Z,7.40
2017-12-23T11:00:28.992Z,7.40
2017-12-23T11:02:56.699Z,7.50
2017-12-23T11:05:24.506Z,7.70
2017-12-23T11:07:52.293Z,7.70
2017-12-23T11:10:20.026Z,7.70
2017-12-23T11:12:47.767Z,7.80
2017-12-23T11:15:19.824Z,7.80
2017-12-23T11:17:47.749Z,7.80
2017-12-23T11:20:15.485Z,7.80
2017-12-23T11:22:43.858Z,7.80
2017-12-23T11:25:12.290Z,7.90
2017-12-23T11:27:40.050Z,8.00
2017-12-23T11:30:07.844Z,8.10
2017-12-23T11:32:35.610Z,8.10
2017-12-23T11:35:03.308Z,8.00
2017-12-23T11:40:03.064Z,8.00
2017-12-23T11:42:30.882Z,8.10
2017-12-23T11:44:58.908Z,8.20
2017-12-23T11:47:27.249Z,8.40
2017-12-23T11:49:55.568Z,8.50
2017-12-23T11:52:33.942Z,8.40
2017-12-23T11:55:02.512Z,8.40
2017-12-23T11:57:36.561Z,8.50
2017-12-23T12:00:04.362Z,8.40
2017-12-23T12:02:32.085Z,8.40
2017-12-23T12:05:01.132Z,8.10
2017-12-23T12:07:33.686Z,8.00
2017-12-23T12:10:02.320Z,8.10
2017-12-23T12:12:41.001Z,8.10
2017-12-23T12:15:09.692Z,8.10
2017-12-23T12:26:13.533Z,7.50
2017-12-23T12:28:42.093Z,7.50
2017-12-23T12:31:15.681Z,7.50
2017-12-23T12:33:44.260Z,7.60
2017-12-23T12:36:15.374Z,7.60
2017-12-23T12:38:43.358Z,7.60
2017-12-23T12:41:16.043Z,7.70
2017-12-23T12:49:54.125Z,7.70
2017-12-23T12:52:30.809Z,7.70
2017-12-23T12:54:58.567Z,7.70
2017-12-23T12:57:39.088Z,7.70
2017-12-23T13:06:06.614Z,7.80
2017-12-23T13:08:37.950Z,7.60
2017-12-23T13:11:08.439Z,7.60
2017-12-23T13:13:44.903Z,7.70
2017-12-23T13:16:16.941Z,7.70
2017-12-23T13:18:44.724Z,7.80
2017-12-23T13:21:13.208Z,7.80
2017-12-23T13:23:44.953Z,7.90
2017-12-23T13:26:15.178Z,7.90
2017-12-23T13:28:43.172Z,8.00
2017-12-23T13:31:19.066Z,8.00
2017-12-23T13:33:46.835Z,8.00
2017-12-23T13:36:16.752Z,8.00
2017-12-23T13:38:50.945Z,8.00
2017-12-23T13:41:19.748Z,8.00
2017-12-23T13:43:47.769Z,8.00
2017-12-23T13:46:19.995Z,8.00
2017-12-23T13:48:47.972Z,7.90
2017-12-23T13:51:15.729Z,7.80
2017-12-23T13:53:45.596Z,7.80
2017-12-23T13:56:18.476Z,7.80
2017-12-23T13:58:47.104Z,7.70
2017-12-23T14:01:14.789Z,7.70
2017-12-23T14:03:42.473Z,7.70
2017-12-23T14:06:14.650Z,7.80
2017-12-23T14:08:44.178Z,7.70
2017-12-23T14:11:12.554Z,7.80
2017-12-23T14:13:40.747Z,7.70
2017-12-23T14:16:08.645Z,7.60
2017-12-23T14:18:37.914Z,7.60
2017-12-23T14:21:06.304Z,7.50
2017-12-23T14:23:34.585Z,7.50
2017-12-23T14:26:02.304Z,7.40
2017-12-23T14:28:30.007Z,7.40
2017-12-23T14:30:57.774Z,7.30
2017-12-23T14:33:25.671Z,7.30
2017-12-23T14:35:53.398Z,7.30
2017-12-23T14:38:21.063Z,7.20
2017-12-23T14:40:49.950Z,7.10
2017-12-23T14:43:18.404Z,7.00
2017-12-23T14:45:46.241Z,7.00
2017-12-23T14:48:13.965Z,6.90
2017-12-23T14:50:41.708Z,6.80
2017-12-23T14:53:09.431Z,6.80
2017-12-23T14:55:38.001Z,6.60
2017-12-23T14:58:05.858Z,6.60
2017-12-23T15:00:35.375Z,6.50
2017-12-23T15:03:03.897Z,6.40
2017-12-23T15:05:32.419Z,6.30
2017-12-23T15:08:00.143Z,6.30
2017-12-23T15:10:28.139Z,6.00
2017-12-23T15:12:55.939Z,5.90
2017-12-23T15:15:23.721Z,5.80
2017-12-23T15:17:51.652Z,5.80
2017-12-23T15:20:19.341Z,5.80
2017-12-23T15:22:47.091Z,5.80
2017-12-23T15:25:14.890Z,5.80
2017-12-23T15:27:42.662Z,5.70
2017-12-23T15:30:10.424Z,5.80
2017-12-23T15:32:38.344Z,5.80
2017-12-23T15:35:06.062Z,5.60
2017-12-23T15:37:34.682Z,5.20
2017-12-23T15:40:02.446Z,5.20
2017-12-23T15:42:30.239Z,5.20
2017-12-23T15:44:58.100Z,5.20
2017-12-23T15:47:25.920Z,5.30
2017-12-23T15:49:53.705Z,5.30
2017-12-23T15:52:21.452Z,5.30
2017-12-23T15:54:49.273Z,5.30
2017-12-23T15:57:17.841Z,5.20
2017-12-23T15:59:45.608Z,5.20
2017-12-23T16:02:13.357Z,5.20
2017-12-23T16:04:41.025Z,5.20
2017-12-23T16:07:08.765Z,5.20
2017-12-23T16:09:36.727Z,5.30
2017-12-23T16:12:04.484Z,5.30
2017-12-23T16:14:32.183Z,5.30
2017-12-23T16:17:00.785Z,5.30
2017-12-23T16:19:28.739Z,5.30
2017-12-23T16:21:56.549Z,5.30
2017-12-23T16:24:24.323Z,5.40
2017-12-23T16:26:52.161Z,5.40
2017-12-23T16:29:20.092Z,5.40
2017-12-23T16:31:47.914Z,5.40
2017-12-23T16:34:15.800Z,5.40
2017-12-23T16:36:43.738Z,5.40
2017-12-23T16:39:11.538Z,5.40
2017-12-23T16:41:39.345Z,5.40
2017-12-23T16:44:07.181Z,5.40
2017-12-23T16:46:35.039Z,5.30
2017-12-23T16:49:02.899Z,5.30
2017-12-23T16:51:30.681Z,5.30
2017-12-23T16:53:58.439Z,5.30
2017-12-23T16:56:26.299Z,5.30
2017-12-23T16:58:54.085Z,5.20
2017-12-23T17:01:21.909Z,5.20
2017-12-23T17:03:49.663Z,5.10
2017-12-23T17:06:17.457Z,5.00
2017-12-23T17:08:45.604Z,4.90
2017-12-23T17:11:13.908Z,4.90
2017-12-23T17:13:41.843Z,4.90
2017-12-23T17:16:09.743Z,5.10
2017-12-23T17:18:37.546Z,5.30
2017-12-23T17:21:05.463Z,5.30
2017-12-23T17:23:33.363Z,5.30
2017-12-23T17:26:01.123Z,5.30
2017-12-23T17:28:40.548Z,5.30
2017-12-23T17:31:08.342Z,5.20
2017-12-23T17:33:36.909Z,5.00
2017-12-23T17:36:04.640Z,4.90
2017-12-23T17:38:32.520Z,4.80
2017-12-23T17:41:00.504Z,4.60
2017-12-23T17:43:28.381Z,4.40
2017-12-23T17:45:56.173Z,4.50
2017-12-23T17:48:24.072Z,4.40
2017-12-23T17:50:51.955Z,4.30
2017-12-23T17:53:19.670Z,4.30
2017-12-23T17:55:47.426Z,4.10
2017-12-23T17:58:15.215Z,4.00
2017-12-23T18:00:42.925Z,4.00
2017-12-23T18:03:11.457Z,4.10
2017-12-23T18:05:39.995Z,4.10
2017-12-23T18:08:07.849Z,4.10
2017-12-23T18:10:35.599Z,4.10
2017-12-23T18:13:03.399Z,4.00
2017-12-23T18:15:31.183Z,4.00
2017-12-23T18:17:59.465Z,3.90
2017-12-23T18:20:27.227Z,3.60
2017-12-23T18:22:55.065Z,3.40
2017-12-23T18:25:23.270Z,3.40
2017-12-23T18:27:51.202Z,3.50
2017-12-23T18:30:19.181Z,3.60
2017-12-23T18:32:47.379Z,4.00
2017-12-23T18:35:15.301Z,4.10
2017-12-23T18:37:43.420Z,4.30
2017-12-23T18:42:43.359Z,4.70
2017-12-23T18:45:11.246Z,4.80
2017-12-23T18:47:39.053Z,4.80
2017-12-23T18:50:06.912Z,5.00
2017-12-23T18:52:34.672Z,5.00
2017-12-23T18:55:02.609Z,5.20
2017-12-23T18:57:30.490Z,5.40
2017-12-23T18:59:58.249Z,5.50
2017-12-23T19:02:25.969Z,5.60
2017-12-23T19:04:53.741Z,5.60
2017-12-23T19:07:21.522Z,5.70
2017-12-23T19:09:49.361Z,5.70
2017-12-23T19:12:17.184Z,5.90
2017-12-23T19:14:45.199Z,5.90
2017-12-23T19:17:13.161Z,6.00
2017-12-23T19:19:41.060Z,6.00
2017-12-23T19:22:08.820Z,6.20
2017-12-23T19:24:36.539Z,6.40
2017-12-23T19:27:04.280Z,6.60
2017-12-23T19:29:32.049Z,6.60
2017-12-23T19:32:00.141Z,6.60
2017-12-23T19:34:27.902Z,6.60
2017-12-23T19:36:55.728Z,6.80
2017-12-23T19:39:23.567Z,6.80
2017-12-23T19:41:51.324Z,6.90
2017-12-23T19:44:19.234Z,6.90
2017-12-23T19:46:48.102Z,7.00
2017-12-23T19:49:16.641Z,7.00
2017-12-23T19:51:45.121Z,7.10
2017-12-23T19:54:12.961Z,7.00
2017-12-23T19:56:40.921Z,7.10
2017-12-23T19:59:08.701Z,7.10
2017-12-23T20:01:36.889Z,7.20
2017-12-23T20:06:36.590Z,7.20
2017-12-23T20:09:04.404Z,7.20
2017-12-23T20:11:32.147Z,7.20
2017-12-23T20:13:59.942Z,7.20
2017-12-23T20:16:27.826Z,7.20
2017-12-23T20:18:55.640Z,7.30
2017-12-23T20:21:23.441Z,7.40
2017-12-23T20:23:51.301Z,7.60
2017-12-23T20:26:19.066Z,7.70
2017-12-23T20:28:46.781Z,7.70
2017-12-23T20:31:14.805Z,7.70
2017-12-23T20:33:42.621Z,7.90
2017-12-23T20:36:11.172Z,8.00
2017-12-23T20:38:38.919Z,8.00
2017-12-23T20:41:07.212Z,8.00
2017-12-23T20:43:34.979Z,8.00
2017-12-23T20:46:02.716Z,8.10
2017-12-23T20:48:30.479Z,8.30
2017-12-23T20:50:58.951Z,8.30
2017-12-23T20:53:27.441Z,8.40
2017-12-23T20:55:55.163Z,8.40
2017-12-23T20:58:22.900Z,8.50
2017-12-23T21:00:50.642Z,8.50
2017-12-23T21:03:18.342Z,8.50
2017-12-23T21:05:46.101Z,8.60
2017-12-23T21:08:13.861Z,8.60
2017-12-23T21:10:41.680Z,8.70
2017-12-23T21:13:10.139Z,8.80
2017-12-23T21:15:37.921Z,8.80
2017-12-23T21:18:05.678Z,8.80
2017-12-23T21:20:33.356Z,8.90
2017-12-23T21:23:01.121Z,8.90
2017-12-23T21:25:28.839Z,8.90
2017-12-23T21:27:56.591Z,9.00
2017-12-23T21:30:24.382Z,9.00
2017-12-23T21:32:52.119Z,9.00
2017-12-23T21:35:21.647Z,9.00
2017-12-23T21:37:49.459Z,9.00
2017-12-23T21:40:19.104Z,8.90
2017-12-23T21:42:46.958Z,8.80
2017-12-23T21:45:14.861Z,8.80
2017-12-23T21:47:42.719Z,8.90
2017-12-23T21:50:10.562Z,8.80
2017-12-23T21:52:38.399Z,8.70
2017-12-23T21:55:06.111Z,8.60
2017-12-23T21:57:33.922Z,8.50
2017-12-23T22:00:01.940Z,8.40
2017-12-23T22:02:29.819Z,8.10
2017-12-23T22:04:57.659Z,7.90
2017-12-23T22:07:25.459Z,7.70
2017-12-23T22:09:53.660Z,7.60
2017-12-23T22:12:21.576Z,7.70
2017-12-23T22:14:49.640Z,7.90
2017-12-23T22:17:17.520Z,8.00
2017-12-23T22:19:46.920Z,8.00
2017-12-23T22:22:15.050Z,7.90
2017-12-23T22:24:42.940Z,8.10
2017-12-23T22:27:10.699Z,8.10
2017-12-23T22:29:38.619Z,8.10
2017-12-23T22:32:06.559Z,8.00
2017-12-23T22:34:34.699Z,8.10
2017-12-23T22:37:02.579Z,8.10
2017-12-23T22:39:30.489Z,8.20
2017-12-23T22:41:58.261Z,8.30
2017-12-23T22:44:26.860Z,8.40
2017-12-23T22:46:54.780Z,8.40
2017-12-23T22:49:22.649Z,8.50
2017-12-23T22:51:50.799Z,8.60
2017-12-23T22:54:18.679Z,8.70
2017-12-23T22:56:46.561Z,8.70
2017-12-23T22:59:14.679Z,8.80
2017-12-23T23:01:42.579Z,8.90
2017-12-23T23:04:10.420Z,8.90
2017-12-23T23:06:38.309Z,8.40
2017-12-23T23:09:06.539Z,8.20
2017-12-23T23:11:34.439Z,7.90
2017-12-23T23:14:02.239Z,7.70
2017-12-23T23:16:30.158Z,7.60
2017-12-23T23:18:58.179Z,7.40
2017-12-23T23:21:26.148Z,7.30
2017-12-23T23:23:54.058Z,7.30
2017-12-23T23:26:21.859Z,7.30
2017-12-23T23:28:49.659Z,7.30
2017-12-23T23:31:18.280Z,7.10
2017-12-23T23:33:48.047Z,7.10
2017-12-23T23:36:16.660Z,7.00
2017-12-23T23:38:44.485Z,7.00
2017-12-23T23:41:14.022Z,7.00
2017-12-23T23:43:41.980Z,6.80
2017-12-23T23:46:09.778Z,6.70
2017-12-23T23:48:37.499Z,6.50
2017-12-23T23:51:05.218Z,6.40
2017-12-23T23:53:33.098Z,6.30
2017-12-23T23:56:01.059Z,6.30
2017-12-23T23:58:28.858Z,6.20
